createdAt,value
2017-10-06T00:00:16.014Z,9.80
2017-10-06T00:02:42.812Z,9.80
2017-10-06T00:05:08.922Z,9.80
2017-10-06T00:07:34.981Z,9.80
2017-10-06T00:10:01.051Z,9.90
2017-10-06T00:12:27.120Z,9.90
2017-10-06T00:14:53.932Z,9.80
2017-10-06T00:17:20.019Z,9.80
2017-10-06T00:19:46.090Z,9.90
2017-10-06T00:22:12.138Z,9.80
2017-10-06T00:24:38.174Z,9.80
2017-10-06T00:27:05.000Z,9.70
2017-10-06T00:29:31.082Z,9.70
2017-10-06T00:31:57.130Z,9.80
2017-10-06T00:34:23.931Z,9.80
2017-10-06T00:36:50.006Z,9.80
2017-10-06T00:39:16.058Z,9.80
2017-10-06T00:41:42.135Z,9.70
2017-10-06T00:44:08.177Z,9.60
2017-10-06T00:46:34.282Z,9.60
2017-10-06T00:49:00.442Z,9.60
2017-10-06T00:51:26.482Z,9.60
2017-10-06T00:53:52.534Z,9.70
2017-10-06T00:56:18.593Z,9.70
2017-10-06T00:58:44.654Z,9.60
2017-10-06T01:01:11.456Z,9.60
2017-10-06T01:03:37.502Z,9.60
2017-10-06T01:06:04.294Z,9.60
2017-10-06T01:08:30.354Z,9.60
2017-10-06T01:10:56.439Z,9.60
2017-10-06T01:13:23.234Z,9.70
2017-10-06T01:15:49.315Z,9.70
2017-10-06T01:18:15.382Z,9.70
2017-10-06T01:20:42.183Z,9.80
2017-10-06T01:23:08.282Z,9.80
2017-10-06T01:25:34.330Z,9.80
2017-10-06T01:28:01.113Z,10.00
2017-10-06T01:30:27.178Z,9.90
2017-10-06T01:32:53.238Z,9.90
2017-10-06T01:35:19.302Z,10.00
2017-10-06T01:37:45.371Z,10.00
2017-10-06T01:40:11.442Z,10.00
2017-10-06T01:42:37.517Z,9.90
2017-10-06T01:45:03.589Z,9.90
2017-10-06T01:47:29.629Z,9.80
2017-10-06T01:49:56.435Z,9.80
2017-10-06T01:52:23.252Z,9.90
2017-10-06T01:54:49.322Z,9.90
2017-10-06T01:57:15.383Z,9.90
2017-10-06T01:59:41.475Z,10.00
2017-10-06T02:02:07.560Z,10.00
2017-10-06T02:04:33.623Z,10.00
2017-10-06T02:07:00.442Z,9.80
2017-10-06T02:09:27.251Z,9.80
2017-10-06T02:11:53.324Z,9.80
2017-10-06T02:14:19.425Z,9.80
2017-10-06T02:16:45.503Z,9.70
2017-10-06T02:19:12.299Z,9.70
2017-10-06T02:21:38.374Z,9.70
2017-10-06T02:24:04.440Z,9.60
2017-10-06T02:26:31.250Z,9.60
2017-10-06T02:28:57.347Z,9.60
2017-10-06T02:31:24.194Z,9.50
2017-10-06T02:33:50.279Z,9.50
2017-10-06T02:36:17.096Z,9.60
2017-10-06T02:38:43.245Z,9.60
2017-10-06T02:41:09.384Z,9.60
2017-10-06T02:43:35.443Z,9.70
2017-10-06T02:46:01.509Z,9.70
2017-10-06T02:48:27.574Z,9.70
2017-10-06T02:50:53.646Z,9.80
2017-10-06T02:53:19.718Z,9.90
2017-10-06T02:55:46.514Z,10.00
2017-10-06T02:58:12.586Z,10.00
2017-10-06T03:00:38.664Z,10.00
2017-10-06T03:03:05.482Z,9.80
2017-10-06T03:05:32.291Z,9.80
2017-10-06T03:07:58.366Z,9.80
2017-10-06T03:10:24.422Z,9.70
2017-10-06T03:12:50.487Z,9.60
2017-10-06T03:15:16.554Z,9.60
2017-10-06T03:17:43.395Z,9.60
2017-10-06T03:20:10.182Z,9.50
2017-10-06T03:22:36.233Z,9.50
2017-10-06T03:25:02.304Z,9.50
2017-10-06T03:27:28.358Z,9.50
2017-10-06T03:29:54.431Z,9.50
2017-10-06T03:32:21.231Z,9.50
2017-10-06T03:34:47.297Z,9.50
2017-10-06T03:37:13.368Z,9.50
2017-10-06T03:39:39.436Z,9.50
2017-10-06T03:42:05.504Z,9.50
2017-10-06T03:44:32.311Z,9.50
2017-10-06T03:46:58.402Z,9.50
2017-10-06T03:49:24.498Z,9.50
2017-10-06T03:51:51.170Z,9.50
2017-10-06T03:54:17.998Z,9.60
2017-10-06T03:56:44.794Z,9.60
2017-10-06T03:59:10.861Z,9.60
2017-10-06T04:01:36.934Z,9.60
2017-10-06T04:04:02.999Z,9.60
2017-10-06T04:06:29.067Z,9.60
2017-10-06T04:08:55.110Z,9.60
2017-10-06T04:11:21.159Z,9.60
2017-10-06T04:13:47.951Z,9.60
2017-10-06T04:16:14.006Z,9.60
2017-10-06T04:18:40.812Z,9.60
2017-10-06T04:21:06.862Z,9.60
2017-10-06T04:23:33.665Z,9.70
2017-10-06T04:25:59.721Z,9.70
2017-10-06T04:28:25.762Z,9.70
2017-10-06T04:30:51.814Z,9.70
2017-10-06T04:33:18.605Z,9.70
2017-10-06T04:35:44.659Z,9.60
2017-10-06T04:38:10.723Z,9.70
2017-10-06T04:40:36.770Z,9.60
2017-10-06T04:43:03.566Z,9.60
2017-10-06T04:45:29.632Z,9.60
2017-10-06T04:47:55.706Z,9.60
2017-10-06T04:50:22.531Z,9.70
2017-10-06T04:52:49.354Z,9.70
2017-10-06T04:55:15.414Z,9.70
2017-10-06T04:57:41.484Z,9.70
2017-10-06T05:00:07.541Z,9.70
2017-10-06T05:02:33.648Z,9.70
2017-10-06T05:04:59.698Z,9.70
2017-10-06T05:07:26.587Z,9.60
2017-10-06T05:09:52.684Z,9.60
2017-10-06T05:12:18.770Z,9.70
2017-10-06T05:14:44.874Z,9.60
2017-10-06T05:17:11.686Z,9.60
2017-10-06T05:19:37.774Z,9.60
2017-10-06T05:22:04.578Z,9.60
2017-10-06T05:24:30.656Z,9.60
2017-10-06T05:26:56.702Z,9.60
2017-10-06T05:29:22.763Z,9.60
2017-10-06T05:31:49.570Z,9.70
2017-10-06T05:34:15.631Z,9.70
2017-10-06T05:36:41.774Z,9.70
2017-10-06T05:39:07.855Z,9.70
2017-10-06T05:41:33.911Z,9.80
2017-10-06T05:43:59.971Z,9.80
2017-10-06T05:46:26.022Z,9.80
2017-10-06T05:48:52.093Z,9.80
2017-10-06T05:51:18.180Z,9.80
2017-10-06T05:53:44.237Z,9.80
2017-10-06T05:56:10.302Z,9.80
2017-10-06T05:58:36.366Z,9.80
2017-10-06T06:01:02.434Z,9.80
2017-10-06T06:03:28.495Z,9.80
2017-10-06T06:05:55.306Z,9.80
2017-10-06T06:08:21.402Z,9.80
2017-10-06T06:10:47.466Z,9.90
2017-10-06T06:13:13.528Z,9.80
2017-10-06T06:15:40.367Z,9.90
2017-10-06T06:18:06.430Z,9.90
2017-10-06T06:20:32.490Z,9.90
2017-10-06T06:22:59.315Z,10.10
2017-10-06T06:25:25.385Z,10.10
2017-10-06T06:27:51.465Z,10.10
2017-10-06T06:30:18.267Z,10.10
2017-10-06T06:32:45.098Z,10.20
2017-10-06T06:35:11.313Z,10.10
2017-10-06T06:37:37.455Z,10.20
2017-10-06T06:40:03.531Z,10.30
2017-10-06T06:42:29.643Z,10.30
2017-10-06T06:44:56.458Z,10.40
2017-10-06T06:47:22.546Z,10.40
2017-10-06T06:49:48.630Z,10.50
2017-10-06T06:52:14.707Z,10.50
2017-10-06T06:54:41.528Z,10.70
2017-10-06T06:57:08.334Z,10.60
2017-10-06T06:59:34.430Z,10.60
2017-10-06T07:02:01.223Z,10.50
2017-10-06T07:04:27.284Z,10.50
2017-10-06T07:06:53.338Z,10.50
2017-10-06T07:09:19.412Z,10.50
2017-10-06T07:11:46.249Z,10.50
2017-10-06T07:14:13.042Z,10.60
2017-10-06T07:16:39.117Z,10.60
2017-10-06T07:19:05.190Z,10.70
2017-10-06T07:21:32.020Z,10.80
2017-10-06T07:23:58.822Z,10.80
2017-10-06T07:26:24.874Z,10.80
2017-10-06T07:28:50.974Z,10.70
2017-10-06T07:31:17.065Z,10.70
2017-10-06T07:33:43.149Z,10.70
2017-10-06T07:36:09.214Z,10.70
2017-10-06T07:38:35.261Z,10.80
2017-10-06T07:41:02.074Z,10.80
2017-10-06T07:43:28.131Z,10.80
2017-10-06T07:45:54.202Z,10.80
2017-10-06T07:48:20.251Z,10.80
2017-10-06T07:50:53.327Z,10.80
2017-10-06T07:53:19.370Z,10.80
2017-10-06T07:55:45.418Z,10.90
2017-10-06T07:58:11.461Z,11.00
2017-10-06T08:00:37.550Z,11.10
2017-10-06T08:03:03.609Z,11.10
2017-10-06T08:05:29.680Z,11.20
2017-10-06T08:07:56.746Z,11.10
2017-10-06T08:10:22.882Z,11.10
2017-10-06T08:12:49.010Z,11.20
2017-10-06T08:15:15.865Z,11.70
2017-10-06T08:17:41.910Z,11.70
2017-10-06T08:20:08.062Z,11.80
2017-10-06T08:22:34.142Z,11.90
2017-10-06T08:25:00.226Z,11.90
2017-10-06T08:27:26.363Z,12.00
2017-10-06T08:29:52.414Z,12.10
2017-10-06T08:32:18.525Z,12.10
2017-10-06T08:34:44.575Z,12.10
2017-10-06T08:37:10.650Z,12.10
2017-10-06T08:39:36.728Z,12.10
2017-10-06T08:42:02.805Z,12.10
2017-10-06T08:44:28.878Z,12.20
2017-10-06T08:46:55.690Z,12.30
2017-10-06T08:49:21.769Z,12.30
2017-10-06T08:51:47.845Z,12.50
2017-10-06T08:54:14.719Z,13.00
2017-10-06T08:56:40.838Z,12.90
2017-10-06T09:55:46.916Z,17.70
2017-10-06T09:58:12.966Z,17.50
2017-10-06T10:00:39.750Z,17.60
2017-10-06T10:03:05.798Z,17.60
2017-10-06T10:05:32.574Z,17.40
2017-10-06T10:07:58.646Z,17.30
2017-10-06T10:10:24.714Z,17.70
2017-10-06T10:12:50.750Z,17.80
2017-10-06T10:15:17.557Z,17.10
2017-10-06T10:17:44.377Z,16.90
2017-10-06T10:20:10.456Z,16.90
2017-10-06T10:22:36.506Z,16.90
2017-10-06T10:25:03.338Z,16.90
2017-10-06T10:27:30.122Z,16.50
2017-10-06T10:29:56.187Z,16.40
2017-10-06T10:32:22.249Z,16.30
2017-10-06T10:34:48.294Z,16.20
2017-10-06T10:37:15.090Z,16.90
2017-10-06T10:39:41.163Z,16.90
2017-10-06T10:42:07.286Z,17.50
2017-10-06T10:44:33.358Z,18.70
2017-10-06T10:46:59.437Z,19.90
2017-10-06T10:49:25.506Z,21.10
2017-10-06T10:51:51.569Z,22.30
2017-10-06T10:54:18.379Z,24.20
2017-10-06T10:56:44.586Z,24.10
2017-10-06T10:59:10.755Z,24.70
2017-10-06T11:01:36.838Z,25.00
2017-10-06T11:04:03.680Z,23.10
2017-10-06T11:06:29.807Z,23.10
2017-10-06T11:08:55.866Z,22.70
2017-10-06T11:11:21.909Z,23.00
2017-10-06T11:13:47.974Z,22.90
2017-10-06T11:16:14.039Z,23.30
2017-10-06T11:18:40.096Z,22.50
2017-10-06T11:21:06.187Z,21.70
2017-10-06T11:23:32.261Z,20.90
2017-10-06T11:25:58.325Z,20.80
2017-10-06T11:28:24.393Z,21.50
2017-10-06T11:30:50.442Z,22.20
2017-10-06T11:33:17.120Z,23.10
2017-10-06T11:35:43.216Z,23.70
2017-10-06T11:38:09.314Z,23.90
2017-10-06T11:40:36.114Z,25.40
2017-10-06T11:43:07.069Z,25.30
2017-10-06T11:45:33.146Z,25.00
2017-10-06T11:47:59.962Z,24.70
2017-10-06T11:50:26.016Z,24.70
2017-10-06T11:52:52.089Z,25.00
2017-10-06T11:55:18.147Z,25.80
2017-10-06T11:57:44.210Z,26.00
2017-10-06T12:00:10.294Z,26.10
2017-10-06T12:02:36.378Z,26.20
2017-10-06T12:05:02.450Z,27.30
2017-10-06T12:07:29.238Z,26.10
2017-10-06T12:09:56.130Z,26.10
2017-10-06T12:12:22.743Z,26.50
2017-10-06T12:14:49.183Z,25.80
2017-10-06T12:17:15.247Z,25.00
2017-10-06T12:19:41.311Z,24.70
2017-10-06T12:22:07.382Z,24.50
2017-10-06T12:29:29.122Z,23.20
2017-10-06T12:31:55.187Z,22.20
2017-10-06T12:41:46.116Z,19.40
2017-10-06T12:44:15.926Z,19.00
2017-10-06T12:46:42.138Z,19.00
2017-10-06T12:49:08.182Z,19.00
2017-10-06T12:51:34.222Z,19.00
2017-10-06T12:54:01.031Z,18.70
2017-10-06T12:56:27.090Z,18.70
2017-10-06T12:58:53.140Z,18.50
2017-10-06T13:01:19.207Z,18.20
2017-10-06T13:03:45.267Z,17.90
2017-10-06T13:06:11.388Z,17.60
2017-10-06T13:08:38.206Z,17.30
2017-10-06T13:11:04.280Z,17.30
2017-10-06T13:13:30.381Z,17.80
2017-10-06T13:15:56.605Z,18.10
2017-10-06T13:18:22.734Z,18.20
2017-10-06T13:20:48.923Z,18.70
2017-10-06T13:23:15.038Z,19.30
2017-10-06T13:25:41.171Z,20.00
2017-10-06T13:28:07.250Z,20.20
2017-10-06T13:30:33.294Z,20.00
2017-10-06T13:32:59.435Z,19.80
2017-10-06T13:35:26.271Z,19.40
2017-10-06T13:37:52.362Z,19.30
2017-10-06T13:40:19.170Z,19.30
2017-10-06T13:42:45.242Z,19.20
2017-10-06T13:45:11.354Z,19.40
2017-10-06T13:47:37.402Z,19.70
2017-10-06T13:50:03.464Z,19.70
2017-10-06T13:52:29.511Z,19.60
2017-10-06T13:54:55.711Z,19.30
2017-10-06T13:57:21.802Z,19.40
2017-10-06T13:59:47.921Z,19.40
2017-10-06T14:02:13.983Z,19.00
2017-10-06T14:04:40.063Z,18.70
2017-10-06T14:07:06.163Z,18.30
2017-10-06T14:09:32.278Z,17.90
2017-10-06T14:11:58.346Z,17.70
2017-10-06T14:14:24.427Z,17.50
2017-10-06T14:16:50.512Z,17.40
2017-10-06T14:19:16.609Z,17.20
2017-10-06T14:21:42.696Z,16.90
2017-10-06T14:24:08.800Z,16.80
2017-10-06T14:26:34.867Z,16.80
2017-10-06T14:29:00.947Z,16.90
2017-10-06T14:31:26.998Z,16.90
2017-10-06T14:33:53.794Z,16.80
2017-10-06T14:36:19.838Z,16.80
2017-10-06T14:38:46.686Z,16.70
2017-10-06T14:41:12.740Z,16.70
2017-10-06T14:43:38.813Z,16.70
2017-10-06T14:46:04.884Z,16.70
2017-10-06T14:48:31.706Z,16.70
2017-10-06T14:50:57.786Z,16.70
2017-10-06T14:53:23.830Z,16.80
2017-10-06T14:55:50.110Z,17.00
2017-10-06T14:58:16.155Z,17.00
2017-10-06T15:00:42.970Z,17.00
2017-10-06T15:03:09.028Z,16.90
2017-10-06T15:05:35.079Z,17.00
2017-10-06T15:08:01.156Z,17.10
2017-10-06T15:10:27.210Z,16.90
2017-10-06T15:12:53.298Z,16.90
2017-10-06T15:15:19.335Z,16.80
2017-10-06T15:17:45.382Z,16.80
2017-10-06T15:20:11.434Z,16.90
2017-10-06T15:22:37.494Z,16.80
2017-10-06T15:25:03.538Z,16.70
2017-10-06T15:27:30.394Z,16.70
2017-10-06T15:29:57.195Z,16.60
2017-10-06T15:32:23.252Z,16.60
2017-10-06T15:34:49.294Z,16.70
2017-10-06T15:37:15.378Z,16.50
2017-10-06T15:39:42.166Z,16.30
2017-10-06T15:42:08.347Z,16.20
2017-10-06T15:44:34.407Z,16.20
2017-10-06T15:47:00.520Z,16.00
2017-10-06T15:49:27.447Z,15.80
2017-10-06T15:51:54.260Z,15.70
2017-10-06T15:54:20.314Z,15.70
2017-10-06T15:56:46.379Z,15.50
2017-10-06T15:59:12.438Z,15.40
2017-10-06T16:01:38.491Z,15.40
2017-10-06T16:04:04.663Z,15.30
2017-10-06T16:06:30.745Z,15.20
2017-10-06T16:08:57.710Z,15.00
2017-10-06T16:11:24.156Z,15.00
2017-10-06T16:13:50.230Z,14.90
2017-10-06T16:16:16.307Z,14.90
2017-10-06T16:18:43.134Z,14.70
2017-10-06T16:21:09.994Z,14.50
2017-10-06T16:23:36.986Z,14.50
2017-10-06T16:26:03.811Z,14.50
2017-10-06T16:28:30.651Z,14.40
2017-10-06T16:30:57.487Z,14.30
2017-10-06T16:33:23.538Z,14.30
2017-10-06T16:35:50.350Z,14.10
2017-10-06T16:38:16.450Z,14.10
2017-10-06T16:40:42.607Z,14.10
2017-10-06T16:43:08.726Z,14.00
2017-10-06T16:45:34.794Z,13.90
2017-10-06T16:48:01.602Z,13.70
2017-10-06T16:50:27.714Z,13.70
2017-10-06T16:52:53.786Z,13.60
2017-10-06T16:55:19.829Z,13.60
2017-10-06T16:57:45.894Z,13.50
2017-10-06T17:00:11.954Z,13.40
2017-10-06T17:02:38.010Z,13.40
2017-10-06T17:05:04.063Z,13.40
2017-10-06T17:07:30.124Z,13.30
2017-10-06T17:09:56.182Z,13.30
2017-10-06T17:12:22.254Z,13.10
2017-10-06T17:14:48.318Z,13.10
2017-10-06T17:17:14.382Z,13.00
2017-10-06T17:19:41.200Z,12.90
2017-10-06T17:22:07.247Z,12.90
2017-10-06T17:24:33.310Z,12.80
2017-10-06T17:26:59.396Z,12.90
2017-10-06T17:29:25.482Z,12.90
2017-10-06T17:31:51.539Z,12.70
2017-10-06T17:34:17.638Z,12.70
2017-10-06T17:36:43.711Z,12.70
2017-10-06T17:39:09.810Z,12.70
2017-10-06T17:41:35.866Z,12.50
2017-10-06T17:44:01.952Z,12.50
2017-10-06T17:46:28.002Z,12.50
2017-10-06T17:48:54.066Z,12.50
2017-10-06T17:51:20.127Z,12.50
2017-10-06T17:53:46.182Z,12.50
2017-10-06T17:56:12.278Z,12.40
2017-10-06T17:58:38.338Z,12.30
2017-10-06T18:01:04.386Z,12.40
2017-10-06T18:03:30.454Z,12.30
2017-10-06T18:05:56.507Z,12.30
2017-10-06T18:08:22.594Z,12.20
2017-10-06T18:10:49.406Z,12.20
2017-10-06T18:13:16.222Z,12.20
2017-10-06T18:15:42.309Z,12.20
2017-10-06T18:18:08.350Z,12.20
2017-10-06T18:20:35.182Z,12.20
2017-10-06T18:23:01.236Z,12.20
2017-10-06T18:25:27.294Z,12.20
2017-10-06T18:27:53.362Z,12.10
2017-10-06T18:30:19.438Z,12.10
2017-10-06T18:32:46.233Z,12.00
2017-10-06T18:35:12.315Z,12.00
2017-10-06T18:37:38.387Z,12.10
2017-10-06T18:40:05.182Z,12.00
2017-10-06T18:42:31.246Z,12.00
2017-10-06T18:44:57.294Z,12.00
2017-10-06T18:47:23.338Z,12.00
2017-10-06T18:49:49.422Z,11.90
2017-10-06T18:52:15.483Z,12.00
2017-10-06T18:54:41.570Z,12.00
2017-10-06T18:57:08.391Z,12.00
2017-10-06T18:59:35.214Z,11.90
2017-10-06T19:02:02.028Z,11.90
2017-10-06T19:04:28.082Z,11.80
2017-10-06T19:06:54.161Z,11.90
2017-10-06T19:09:20.210Z,11.80
2017-10-06T19:11:46.408Z,11.80
2017-10-06T19:14:12.486Z,11.80
2017-10-06T19:16:38.534Z,11.90
2017-10-06T19:19:04.610Z,12.00
2017-10-06T19:21:30.665Z,12.10
2017-10-06T19:23:56.732Z,12.10
2017-10-06T19:26:22.813Z,12.00
2017-10-06T19:28:48.880Z,12.00
2017-10-06T19:31:14.937Z,11.90
2017-10-06T19:33:41.003Z,11.90
2017-10-06T19:36:07.085Z,11.90
2017-10-06T19:38:33.169Z,11.90
2017-10-06T19:41:00.020Z,11.80
2017-10-06T19:43:26.128Z,11.90
2017-10-06T19:45:52.930Z,11.80
2017-10-06T19:48:19.020Z,11.80
2017-10-06T19:50:45.102Z,11.80
2017-10-06T19:53:11.182Z,11.70
2017-10-06T19:55:37.234Z,11.70
2017-10-06T19:58:03.307Z,11.70
2017-10-06T20:00:29.358Z,11.70
2017-10-06T20:02:55.437Z,11.60
2017-10-06T20:05:21.538Z,11.60
2017-10-06T20:07:47.631Z,11.50
2017-10-06T20:10:14.441Z,11.50
2017-10-06T20:12:40.530Z,11.50
2017-10-06T20:15:06.616Z,11.50
2017-10-06T20:17:32.674Z,11.50
2017-10-06T20:19:58.730Z,11.50
2017-10-06T20:22:24.791Z,11.50
2017-10-06T20:24:50.851Z,11.40
2017-10-06T20:27:16.908Z,11.40
2017-10-06T20:29:42.974Z,11.40
2017-10-06T20:32:09.035Z,11.40
2017-10-06T20:34:35.889Z,11.40
2017-10-06T20:37:01.956Z,11.40
2017-10-06T20:39:28.050Z,11.30
2017-10-06T20:41:54.138Z,11.40
2017-10-06T20:44:20.186Z,11.40
2017-10-06T20:46:46.266Z,11.40
2017-10-06T20:49:12.340Z,11.30
2017-10-06T20:51:39.132Z,11.40
2017-10-06T20:54:05.182Z,11.30
2017-10-06T20:56:31.259Z,11.40
2017-10-06T20:58:57.310Z,11.50
2017-10-06T21:01:23.358Z,11.50
2017-10-06T21:03:49.406Z,11.60
2017-10-06T21:06:16.366Z,11.60
2017-10-06T21:08:42.406Z,11.60
2017-10-06T21:11:08.466Z,11.70
2017-10-06T21:13:35.254Z,11.70
2017-10-06T21:16:01.306Z,11.70
2017-10-06T21:18:27.347Z,11.70
2017-10-06T21:20:53.409Z,11.70
2017-10-06T21:23:20.198Z,11.60
2017-10-06T21:25:47.082Z,11.60
2017-10-06T21:28:13.154Z,11.70
2017-10-06T21:30:39.991Z,11.60
2017-10-06T21:33:06.048Z,11.60
2017-10-06T21:35:32.173Z,11.60
2017-10-06T21:37:58.229Z,11.60
2017-10-06T21:40:25.019Z,11.60
2017-10-06T21:42:51.086Z,11.50
2017-10-06T21:45:18.659Z,11.60
2017-10-06T21:47:44.753Z,11.60
2017-10-06T21:50:10.794Z,11.80
2017-10-06T21:52:36.893Z,11.80
2017-10-06T21:55:02.974Z,11.80
2017-10-06T21:57:29.027Z,11.80
2017-10-06T21:59:55.082Z,11.80
2017-10-06T22:02:21.165Z,11.80
2017-10-06T22:04:47.243Z,11.80
2017-10-06T22:07:13.345Z,11.80
2017-10-06T22:09:39.400Z,11.80
2017-10-06T22:12:06.225Z,11.90
2017-10-06T22:14:32.290Z,11.90
2017-10-06T22:16:58.361Z,11.90
2017-10-06T22:19:25.205Z,12.00
2017-10-06T22:21:51.243Z,12.00
2017-10-06T22:24:17.334Z,12.00
2017-10-06T22:26:43.395Z,12.00
2017-10-06T22:29:10.226Z,12.10
2017-10-06T22:31:36.348Z,12.10
2017-10-06T22:34:03.142Z,12.20
2017-10-06T22:36:29.186Z,12.10
2017-10-06T22:38:55.997Z,12.10
2017-10-06T22:41:22.796Z,12.10
2017-10-06T22:43:48.894Z,12.10
2017-10-06T22:46:14.969Z,12.10
2017-10-06T22:48:46.953Z,12.10
2017-10-06T22:51:13.026Z,12.20
2017-10-06T22:53:39.101Z,12.10
2017-10-06T22:56:05.150Z,12.10
2017-10-06T22:58:31.237Z,12.00
2017-10-06T23:00:57.292Z,12.00
2017-10-06T23:03:23.341Z,12.00
2017-10-06T23:05:50.148Z,12.10
2017-10-06T23:08:16.246Z,12.10
2017-10-06T23:10:42.309Z,12.00
2017-10-06T23:13:08.361Z,12.10
2017-10-06T23:15:34.423Z,12.00
2017-10-06T23:18:01.194Z,12.10
2017-10-06T23:20:27.249Z,12.00
2017-10-06T23:22:54.030Z,12.10
2017-10-06T23:25:20.085Z,12.10
2017-10-06T23:27:46.904Z,12.00
2017-10-06T23:30:12.949Z,12.00
2017-10-06T23:32:39.009Z,11.90
2017-10-06T23:35:05.072Z,11.90
2017-10-06T23:37:31.112Z,12.00
2017-10-06T23:39:57.214Z,12.00
2017-10-06T23:42:23.286Z,11.90
2017-10-06T23:44:49.343Z,11.90
2017-10-06T23:47:15.390Z,11.90
2017-10-06T23:49:41.454Z,11.90
2017-10-06T23:52:07.511Z,11.90
2017-10-06T23:54:34.301Z,11.90
2017-10-06T23:57:00.353Z,11.90
2017-10-06T23:59:26.417Z,11.90
